sensor_id;sensor_type;location;lat;lon;timestamp;P1;durP1;ratioP1;P2;durP2;ratioP2
19280;SDS011;9774;52.034;5.342;2022-12-13T00:00:27;15.35;;;8.60;;
19280;SDS011;9774;52.034;5.342;2022-12-13T00:02:55;15.35;;;8.02;;
19280;SDS011;9774;52.034;5.342;2022-12-13T00:05:22;13.80;;;8.95;;
19280;SDS011;9774;52.034;5.342;2022-12-13T00:07:50;14.35;;;8.05;;
19280;SDS011;9774;52.034;5.342;2022-12-13T00:10:17;13.65;;;8.27;;
19280;SDS011;9774;52.034;5.342;2022-12-13T00:12:44;14.50;;;8.75;;
19280;SDS011;9774;52.034;5.342;2022-12-13T00:15:13;13.80;;;8.32;;
19280;SDS011;9774;52.034;5.342;2022-12-13T00:17:40;15.13;;;9.15;;
19280;SDS011;9774;52.034;5.342;2022-12-13T00:20:09;14.23;;;8.68;;
19280;SDS011;9774;52.034;5.342;2022-12-13T00:22:37;14.55;;;8.25;;
19280;SDS011;9774;52.034;5.342;2022-12-13T00:25:04;14.18;;;8.20;;
19280;SDS011;9774;52.034;5.342;2022-12-13T00:27:32;14.18;;;7.53;;
19280;SDS011;9774;52.034;5.342;2022-12-13T00:29:59;12.15;;;7.03;;
19280;SDS011;9774;52.034;5.342;2022-12-13T00:32:28;12.27;;;7.25;;
19280;SDS011;9774;52.034;5.342;2022-12-13T00:34:55;11.15;;;6.70;;
19280;SDS011;9774;52.034;5.342;2022-12-13T00:37:22;12.82;;;7.15;;
19280;SDS011;9774;52.034;5.342;2022-12-13T00:39:50;12.85;;;7.68;;
19280;SDS011;9774;52.034;5.342;2022-12-13T00:42:18;14.35;;;8.30;;
19280;SDS011;9774;52.034;5.342;2022-12-13T00:44:45;14.32;;;7.88;;
19280;SDS011;9774;52.034;5.342;2022-12-13T00:47:12;13.93;;;7.35;;
19280;SDS011;9774;52.034;5.342;2022-12-13T00:49:41;13.88;;;7.72;;
19280;SDS011;9774;52.034;5.342;2022-12-13T00:52:08;15.32;;;8.52;;
19280;SDS011;9774;52.034;5.342;2022-12-13T00:54:35;12.90;;;7.53;;
19280;SDS011;9774;52.034;5.342;2022-12-13T00:57:02;11.10;;;7.20;;
19280;SDS011;9774;52.034;5.342;2022-12-13T00:59:30;13.23;;;8.23;;
19280;SDS011;9774;52.034;5.342;2022-12-13T01:01:57;11.68;;;7.78;;
19280;SDS011;9774;52.034;5.342;2022-12-13T01:04:25;14.10;;;7.55;;
19280;SDS011;9774;52.034;5.342;2022-12-13T01:06:54;16.15;;;8.45;;
19280;SDS011;9774;52.034;5.342;2022-12-13T01:09:22;14.85;;;7.68;;
19280;SDS011;9774;52.034;5.342;2022-12-13T01:11:54;13.18;;;8.25;;
19280;SDS011;9774;52.034;5.342;2022-12-13T01:14:22;13.30;;;7.63;;
19280;SDS011;9774;52.034;5.342;2022-12-13T01:16:50;14.50;;;8.27;;
19280;SDS011;9774;52.034;5.342;2022-12-13T01:19:20;14.80;;;7.78;;
19280;SDS011;9774;52.034;5.342;2022-12-13T01:21:47;12.48;;;7.90;;
19280;SDS011;9774;52.034;5.342;2022-12-13T01:24:16;12.90;;;7.93;;
19280;SDS011;9774;52.034;5.342;2022-12-13T01:26:45;14.48;;;8.13;;
19280;SDS011;9774;52.034;5.342;2022-12-13T01:29:12;15.40;;;8.75;;
19280;SDS011;9774;52.034;5.342;2022-12-13T01:31:40;17.13;;;8.63;;
19280;SDS011;9774;52.034;5.342;2022-12-13T01:34:07;16.10;;;8.07;;
19280;SDS011;9774;52.034;5.342;2022-12-13T01:36:36;18.00;;;8.48;;
19280;SDS011;9774;52.034;5.342;2022-12-13T01:39:03;17.58;;;8.60;;
19280;SDS011;9774;52.034;5.342;2022-12-13T01:41:33;19.90;;;10.40;;
19280;SDS011;9774;52.034;5.342;2022-12-13T01:44:00;15.90;;;8.32;;
19280;SDS011;9774;52.034;5.342;2022-12-13T01:46:30;18.38;;;9.20;;
19280;SDS011;9774;52.034;5.342;2022-12-13T01:49:00;19.13;;;9.30;;
19280;SDS011;9774;52.034;5.342;2022-12-13T01:51:33;13.95;;;7.22;;
19280;SDS011;9774;52.034;5.342;2022-12-13T01:54:03;14.07;;;7.55;;
19280;SDS011;9774;52.034;5.342;2022-12-13T01:56:36;12.52;;;7.10;;
19280;SDS011;9774;52.034;5.342;2022-12-13T01:59:07;14.18;;;7.85;;
19280;SDS011;9774;52.034;5.342;2022-12-13T02:01:37;12.75;;;7.55;;
19280;SDS011;9774;52.034;5.342;2022-12-13T02:04:05;16.35;;;7.88;;
19280;SDS011;9774;52.034;5.342;2022-12-13T02:06:34;12.70;;;6.82;;
19280;SDS011;9774;52.034;5.342;2022-12-13T02:09:03;14.90;;;7.95;;
19280;SDS011;9774;52.034;5.342;2022-12-13T02:11:32;12.70;;;6.60;;
19280;SDS011;9774;52.034;5.342;2022-12-13T02:14:03;12.32;;;6.78;;
19280;SDS011;9774;52.034;5.342;2022-12-13T02:16:34;13.65;;;7.45;;
19280;SDS011;9774;52.034;5.342;2022-12-13T02:19:17;12.07;;;6.90;;
19280;SDS011;9774;52.034;5.342;2022-12-13T02:22:08;13.32;;;7.63;;
19280;SDS011;9774;52.034;5.342;2022-12-13T02:24:55;13.48;;;7.10;;
19280;SDS011;9774;52.034;5.342;2022-12-13T02:27:39;11.98;;;7.38;;
19280;SDS011;9774;52.034;5.342;2022-12-13T02:30:21;12.15;;;7.22;;
19280;SDS011;9774;52.034;5.342;2022-12-13T02:35:49;9.40;;;6.00;;
19280;SDS011;9774;52.034;5.342;2022-12-13T02:38:22;12.90;;;7.30;;
19280;SDS011;9774;52.034;5.342;2022-12-13T02:40:54;14.23;;;7.65;;
19280;SDS011;9774;52.034;5.342;2022-12-13T02:43:31;12.85;;;7.45;;
19280;SDS011;9774;52.034;5.342;2022-12-13T02:46:05;14.25;;;7.30;;
19280;SDS011;9774;52.034;5.342;2022-12-13T02:48:36;14.25;;;7.40;;
19280;SDS011;9774;52.034;5.342;2022-12-13T02:51:05;14.43;;;7.00;;
19280;SDS011;9774;52.034;5.342;2022-12-13T02:53:36;12.75;;;6.78;;
19280;SDS011;9774;52.034;5.342;2022-12-13T02:56:06;13.13;;;7.57;;
19280;SDS011;9774;52.034;5.342;2022-12-13T02:58:34;10.95;;;7.07;;
19280;SDS011;9774;52.034;5.342;2022-12-13T03:01:12;13.02;;;7.50;;
19280;SDS011;9774;52.034;5.342;2022-12-13T03:03:47;10.70;;;6.18;;
19280;SDS011;9774;52.034;5.342;2022-12-13T03:06:24;13.68;;;7.75;;
19280;SDS011;9774;52.034;5.342;2022-12-13T03:09:06;10.70;;;6.72;;
19280;SDS011;9774;52.034;5.342;2022-12-13T03:14:57;12.75;;;6.32;;
19280;SDS011;9774;52.034;5.342;2022-12-13T03:17:30;11.98;;;6.20;;
19280;SDS011;9774;52.034;5.342;2022-12-13T03:20:03;14.30;;;7.85;;
19280;SDS011;9774;52.034;5.342;2022-12-13T03:22:32;15.15;;;7.55;;
19280;SDS011;9774;52.034;5.342;2022-12-13T03:25:00;12.55;;;6.53;;
19280;SDS011;9774;52.034;5.342;2022-12-13T03:27:27;12.55;;;7.35;;
19280;SDS011;9774;52.034;5.342;2022-12-13T03:29:55;13.13;;;6.93;;
19280;SDS011;9774;52.034;5.342;2022-12-13T03:32:23;11.80;;;6.88;;
19280;SDS011;9774;52.034;5.342;2022-12-13T03:34:52;14.68;;;7.68;;
19280;SDS011;9774;52.034;5.342;2022-12-13T03:37:19;13.65;;;6.95;;
19280;SDS011;9774;52.034;5.342;2022-12-13T03:39:46;11.90;;;6.63;;
19280;SDS011;9774;52.034;5.342;2022-12-13T03:42:14;13.05;;;7.13;;
19280;SDS011;9774;52.034;5.342;2022-12-13T03:44:42;11.73;;;6.80;;
19280;SDS011;9774;52.034;5.342;2022-12-13T03:47:09;13.23;;;7.18;;
19280;SDS011;9774;52.034;5.342;2022-12-13T03:49:38;14.52;;;7.63;;
19280;SDS011;9774;52.034;5.342;2022-12-13T03:52:06;11.77;;;7.60;;
19280;SDS011;9774;52.034;5.342;2022-12-13T03:54:34;13.55;;;6.97;;
19280;SDS011;9774;52.034;5.342;2022-12-13T03:57:01;14.75;;;7.90;;
19280;SDS011;9774;52.034;5.342;2022-12-13T03:59:28;11.93;;;6.85;;
19280;SDS011;9774;52.034;5.342;2022-12-13T04:01:56;10.82;;;6.93;;
19280;SDS011;9774;52.034;5.342;2022-12-13T04:04:23;12.82;;;7.22;;
19280;SDS011;9774;52.034;5.342;2022-12-13T04:06:50;14.43;;;7.80;;
19280;SDS011;9774;52.034;5.342;2022-12-13T04:09:20;14.68;;;7.85;;
19280;SDS011;9774;52.034;5.342;2022-12-13T04:11:47;14.40;;;7.38;;
19280;SDS011;9774;52.034;5.342;2022-12-13T04:14:32;13.77;;;7.28;;
19280;SDS011;9774;52.034;5.342;2022-12-13T04:16:59;12.60;;;7.45;;
19280;SDS011;9774;52.034;5.342;2022-12-13T04:19:27;12.23;;;7.47;;
19280;SDS011;9774;52.034;5.342;2022-12-13T04:21:54;12.85;;;7.47;;
19280;SDS011;9774;52.034;5.342;2022-12-13T04:24:23;12.07;;;7.63;;
19280;SDS011;9774;52.034;5.342;2022-12-13T04:26:51;12.05;;;6.55;;
19280;SDS011;9774;52.034;5.342;2022-12-13T04:29:18;14.80;;;7.20;;
19280;SDS011;9774;52.034;5.342;2022-12-13T04:31:46;12.45;;;8.10;;
19280;SDS011;9774;52.034;5.342;2022-12-13T04:34:13;14.13;;;7.95;;
19280;SDS011;9774;52.034;5.342;2022-12-13T04:36:41;13.68;;;7.20;;
19280;SDS011;9774;52.034;5.342;2022-12-13T04:39:08;12.73;;;7.38;;
19280;SDS011;9774;52.034;5.342;2022-12-13T04:41:37;12.40;;;7.32;;
19280;SDS011;9774;52.034;5.342;2022-12-13T04:44:05;12.07;;;7.10;;
19280;SDS011;9774;52.034;5.342;2022-12-13T04:46:33;12.13;;;7.20;;
19280;SDS011;9774;52.034;5.342;2022-12-13T04:49:00;13.00;;;7.85;;
19280;SDS011;9774;52.034;5.342;2022-12-13T04:51:28;12.38;;;7.22;;
19280;SDS011;9774;52.034;5.342;2022-12-13T04:53:55;13.48;;;7.85;;
19280;SDS011;9774;52.034;5.342;2022-12-13T04:56:23;14.77;;;7.20;;
19280;SDS011;9774;52.034;5.342;2022-12-13T04:58:51;11.88;;;7.28;;
19280;SDS011;9774;52.034;5.342;2022-12-13T05:01:18;14.88;;;8.45;;
19280;SDS011;9774;52.034;5.342;2022-12-13T05:03:46;14.70;;;8.30;;
19280;SDS011;9774;52.034;5.342;2022-12-13T05:06:13;15.80;;;8.38;;
19280;SDS011;9774;52.034;5.342;2022-12-13T05:08:41;13.98;;;8.02;;
19280;SDS011;9774;52.034;5.342;2022-12-13T05:11:09;12.63;;;8.25;;
19280;SDS011;9774;52.034;5.342;2022-12-13T05:13:37;11.50;;;7.22;;
19280;SDS011;9774;52.034;5.342;2022-12-13T05:16:07;12.73;;;6.82;;
19280;SDS011;9774;52.034;5.342;2022-12-13T05:18:35;12.88;;;7.30;;
19280;SDS011;9774;52.034;5.342;2022-12-13T05:21:03;14.27;;;8.10;;
19280;SDS011;9774;52.034;5.342;2022-12-13T05:23:31;13.50;;;7.20;;
19280;SDS011;9774;52.034;5.342;2022-12-13T05:25:59;14.20;;;7.63;;
19280;SDS011;9774;52.034;5.342;2022-12-13T05:28:27;12.90;;;7.50;;
19280;SDS011;9774;52.034;5.342;2022-12-13T05:30:56;12.55;;;7.38;;
19280;SDS011;9774;52.034;5.342;2022-12-13T05:33:26;12.23;;;6.95;;
19280;SDS011;9774;52.034;5.342;2022-12-13T05:35:53;13.48;;;8.45;;
19280;SDS011;9774;52.034;5.342;2022-12-13T05:38:20;13.57;;;7.75;;
19280;SDS011;9774;52.034;5.342;2022-12-13T05:40:48;14.40;;;7.88;;
19280;SDS011;9774;52.034;5.342;2022-12-13T05:43:15;13.20;;;8.20;;
19280;SDS011;9774;52.034;5.342;2022-12-13T05:45:43;13.98;;;7.30;;
19280;SDS011;9774;52.034;5.342;2022-12-13T05:48:11;12.30;;;6.60;;
19280;SDS011;9774;52.034;5.342;2022-12-13T05:50:39;12.57;;;7.95;;
19280;SDS011;9774;52.034;5.342;2022-12-13T05:53:07;13.82;;;8.45;;
19280;SDS011;9774;52.034;5.342;2022-12-13T05:55:35;13.07;;;7.65;;
19280;SDS011;9774;52.034;5.342;2022-12-13T05:58:03;12.48;;;7.55;;
19280;SDS011;9774;52.034;5.342;2022-12-13T06:00:30;13.05;;;7.85;;
19280;SDS011;9774;52.034;5.342;2022-12-13T06:02:58;13.82;;;8.02;;
19280;SDS011;9774;52.034;5.342;2022-12-13T06:05:26;13.02;;;7.72;;
19280;SDS011;9774;52.034;5.342;2022-12-13T06:07:55;13.13;;;7.70;;
19280;SDS011;9774;52.034;5.342;2022-12-13T06:10:22;13.70;;;8.55;;
19280;SDS011;9774;52.034;5.342;2022-12-13T06:12:50;12.85;;;7.55;;
19280;SDS011;9774;52.034;5.342;2022-12-13T06:15:17;13.05;;;7.78;;
19280;SDS011;9774;52.034;5.342;2022-12-13T06:17:45;14.63;;;7.75;;
19280;SDS011;9774;52.034;5.342;2022-12-13T06:20:12;14.93;;;7.88;;
19280;SDS011;9774;52.034;5.342;2022-12-13T06:22:39;14.10;;;7.88;;
19280;SDS011;9774;52.034;5.342;2022-12-13T06:25:08;10.88;;;7.00;;
19280;SDS011;9774;52.034;5.342;2022-12-13T06:27:35;14.23;;;8.02;;
19280;SDS011;9774;52.034;5.342;2022-12-13T06:30:03;13.02;;;7.90;;
19280;SDS011;9774;52.034;5.342;2022-12-13T06:32:31;11.60;;;7.47;;
19280;SDS011;9774;52.034;5.342;2022-12-13T06:34:58;16.10;;;8.18;;
19280;SDS011;9774;52.034;5.342;2022-12-13T06:37:26;14.95;;;8.68;;
19280;SDS011;9774;52.034;5.342;2022-12-13T06:39:53;14.63;;;8.10;;
19280;SDS011;9774;52.034;5.342;2022-12-13T06:42:22;14.02;;;7.63;;
19280;SDS011;9774;52.034;5.342;2022-12-13T06:44:49;11.73;;;7.03;;
19280;SDS011;9774;52.034;5.342;2022-12-13T06:47:16;14.38;;;8.73;;
19280;SDS011;9774;52.034;5.342;2022-12-13T06:49:44;13.57;;;8.43;;
19280;SDS011;9774;52.034;5.342;2022-12-13T06:52:11;14.90;;;7.53;;
19280;SDS011;9774;52.034;5.342;2022-12-13T06:54:39;15.02;;;8.00;;
19280;SDS011;9774;52.034;5.342;2022-12-13T06:57:07;13.73;;;7.88;;
19280;SDS011;9774;52.034;5.342;2022-12-13T06:59:36;12.90;;;7.97;;
19280;SDS011;9774;52.034;5.342;2022-12-13T07:02:03;12.40;;;7.22;;
19280;SDS011;9774;52.034;5.342;2022-12-13T07:04:32;14.45;;;7.90;;
19280;SDS011;9774;52.034;5.342;2022-12-13T07:06:59;13.43;;;8.02;;
19280;SDS011;9774;52.034;5.342;2022-12-13T07:09:26;12.35;;;7.63;;
19280;SDS011;9774;52.034;5.342;2022-12-13T07:11:54;15.10;;;8.35;;
19280;SDS011;9774;52.034;5.342;2022-12-13T07:14:21;15.77;;;8.52;;
19280;SDS011;9774;52.034;5.342;2022-12-13T07:16:51;16.63;;;8.82;;
19280;SDS011;9774;52.034;5.342;2022-12-13T07:19:19;15.18;;;8.77;;
19280;SDS011;9774;52.034;5.342;2022-12-13T07:21:47;14.75;;;8.52;;
19280;SDS011;9774;52.034;5.342;2022-12-13T07:24:14;17.27;;;8.13;;
19280;SDS011;9774;52.034;5.342;2022-12-13T07:26:41;12.93;;;7.75;;
19280;SDS011;9774;52.034;5.342;2022-12-13T07:29:09;14.50;;;8.10;;
19280;SDS011;9774;52.034;5.342;2022-12-13T07:31:36;16.23;;;8.63;;
19280;SDS011;9774;52.034;5.342;2022-12-13T07:34:04;13.40;;;8.00;;
19280;SDS011;9774;52.034;5.342;2022-12-13T07:36:32;13.70;;;8.63;;
19280;SDS011;9774;52.034;5.342;2022-12-13T07:38:59;15.52;;;8.32;;
19280;SDS011;9774;52.034;5.342;2022-12-13T07:41:27;16.48;;;8.55;;
19280;SDS011;9774;52.034;5.342;2022-12-13T07:43:55;15.43;;;8.38;;
19280;SDS011;9774;52.034;5.342;2022-12-13T07:46:23;16.70;;;9.00;;
19280;SDS011;9774;52.034;5.342;2022-12-13T07:48:50;14.82;;;9.20;;
19280;SDS011;9774;52.034;5.342;2022-12-13T07:51:19;14.68;;;8.38;;
19280;SDS011;9774;52.034;5.342;2022-12-13T07:53:46;15.55;;;8.40;;
19280;SDS011;9774;52.034;5.342;2022-12-13T07:56:13;14.57;;;9.00;;
19280;SDS011;9774;52.034;5.342;2022-12-13T07:58:41;14.38;;;8.20;;
19280;SDS011;9774;52.034;5.342;2022-12-13T08:01:10;11.60;;;7.25;;
19280;SDS011;9774;52.034;5.342;2022-12-13T08:03:37;14.10;;;8.35;;
19280;SDS011;9774;52.034;5.342;2022-12-13T08:06:05;14.57;;;8.38;;
19280;SDS011;9774;52.034;5.342;2022-12-13T08:08:35;14.70;;;8.32;;
19280;SDS011;9774;52.034;5.342;2022-12-13T08:11:04;15.32;;;8.63;;
19280;SDS011;9774;52.034;5.342;2022-12-13T08:13:32;13.80;;;8.30;;
19280;SDS011;9774;52.034;5.342;2022-12-13T08:16:01;16.08;;;8.68;;
19280;SDS011;9774;52.034;5.342;2022-12-13T08:18:30;14.98;;;9.10;;
19280;SDS011;9774;52.034;5.342;2022-12-13T08:20:57;17.33;;;9.50;;
19280;SDS011;9774;52.034;5.342;2022-12-13T08:23:25;15.52;;;8.65;;
19280;SDS011;9774;52.034;5.342;2022-12-13T08:25:54;18.00;;;9.50;;
19280;SDS011;9774;52.034;5.342;2022-12-13T08:28:22;15.75;;;9.55;;
19280;SDS011;9774;52.034;5.342;2022-12-13T08:30:50;17.63;;;9.20;;
19280;SDS011;9774;52.034;5.342;2022-12-13T08:33:18;14.40;;;8.18;;
19280;SDS011;9774;52.034;5.342;2022-12-13T08:35:46;16.42;;;9.30;;
19280;SDS011;9774;52.034;5.342;2022-12-13T08:38:13;15.75;;;9.13;;
19280;SDS011;9774;52.034;5.342;2022-12-13T08:40:40;13.30;;;8.90;;
19280;SDS011;9774;52.034;5.342;2022-12-13T08:43:09;15.55;;;9.15;;
19280;SDS011;9774;52.034;5.342;2022-12-13T08:45:36;19.00;;;9.95;;
19280;SDS011;9774;52.034;5.342;2022-12-13T08:48:04;15.27;;;9.45;;
19280;SDS011;9774;52.034;5.342;2022-12-13T08:50:32;13.77;;;8.25;;
19280;SDS011;9774;52.034;5.342;2022-12-13T08:52:59;18.45;;;9.60;;
19280;SDS011;9774;52.034;5.342;2022-12-13T08:55:26;16.38;;;9.57;;
19280;SDS011;9774;52.034;5.342;2022-12-13T08:57:53;19.83;;;9.95;;
19280;SDS011;9774;52.034;5.342;2022-12-13T09:00:22;16.77;;;10.05;;
19280;SDS011;9774;52.034;5.342;2022-12-13T09:02:49;16.08;;;8.98;;
19280;SDS011;9774;52.034;5.342;2022-12-13T09:05:17;16.00;;;9.88;;
19280;SDS011;9774;52.034;5.342;2022-12-13T09:07:45;19.20;;;10.35;;
19280;SDS011;9774;52.034;5.342;2022-12-13T09:10:12;15.35;;;9.82;;
19280;SDS011;9774;52.034;5.342;2022-12-13T09:12:40;16.25;;;9.40;;
19280;SDS011;9774;52.034;5.342;2022-12-13T09:15:08;19.27;;;11.02;;
19280;SDS011;9774;52.034;5.342;2022-12-13T09:17:37;18.48;;;10.32;;
19280;SDS011;9774;52.034;5.342;2022-12-13T09:20:05;20.50;;;11.43;;
19280;SDS011;9774;52.034;5.342;2022-12-13T09:22:35;20.17;;;10.77;;
19280;SDS011;9774;52.034;5.342;2022-12-13T09:25:03;18.92;;;10.80;;
19280;SDS011;9774;52.034;5.342;2022-12-13T09:27:31;20.05;;;10.93;;
19280;SDS011;9774;52.034;5.342;2022-12-13T09:29:59;19.10;;;11.50;;
19280;SDS011;9774;52.034;5.342;2022-12-13T09:32:27;19.83;;;11.55;;
19280;SDS011;9774;52.034;5.342;2022-12-13T09:34:55;18.50;;;11.43;;
19280;SDS011;9774;52.034;5.342;2022-12-13T09:37:22;17.10;;;10.35;;
19280;SDS011;9774;52.034;5.342;2022-12-13T09:39:50;17.80;;;11.55;;
19280;SDS011;9774;52.034;5.342;2022-12-13T09:42:18;20.25;;;11.95;;
19280;SDS011;9774;52.034;5.342;2022-12-13T09:44:50;19.30;;;10.77;;
19280;SDS011;9774;52.034;5.342;2022-12-13T09:47:22;21.40;;;11.73;;
19280;SDS011;9774;52.034;5.342;2022-12-13T09:49:56;19.90;;;11.18;;
19280;SDS011;9774;52.034;5.342;2022-12-13T09:52:35;19.88;;;11.70;;
19280;SDS011;9774;52.034;5.342;2022-12-13T09:55:06;20.15;;;12.25;;
19280;SDS011;9774;52.034;5.342;2022-12-13T09:57:46;18.48;;;11.25;;
19280;SDS011;9774;52.034;5.342;2022-12-13T10:00:15;19.40;;;11.32;;
19280;SDS011;9774;52.034;5.342;2022-12-13T10:02:44;21.15;;;11.40;;
19280;SDS011;9774;52.034;5.342;2022-12-13T10:05:17;20.02;;;11.25;;
19280;SDS011;9774;52.034;5.342;2022-12-13T10:07:49;21.52;;;12.02;;
19280;SDS011;9774;52.034;5.342;2022-12-13T10:10:19;19.27;;;12.10;;
19280;SDS011;9774;52.034;5.342;2022-12-13T10:12:47;21.05;;;11.98;;
19280;SDS011;9774;52.034;5.342;2022-12-13T10:15:19;18.63;;;10.75;;
19280;SDS011;9774;52.034;5.342;2022-12-13T10:17:48;22.50;;;11.75;;
19280;SDS011;9774;52.034;5.342;2022-12-13T10:20:18;20.70;;;11.40;;
19280;SDS011;9774;52.034;5.342;2022-12-13T10:22:48;20.52;;;11.77;;
19280;SDS011;9774;52.034;5.342;2022-12-13T10:25:15;20.90;;;12.57;;
19280;SDS011;9774;52.034;5.342;2022-12-13T10:28:05;20.73;;;11.55;;
19280;SDS011;9774;52.034;5.342;2022-12-13T10:30:37;21.52;;;11.43;;
19280;SDS011;9774;52.034;5.342;2022-12-13T10:33:10;18.58;;;11.27;;
19280;SDS011;9774;52.034;5.342;2022-12-13T10:36:00;19.75;;;11.15;;
19280;SDS011;9774;52.034;5.342;2022-12-13T10:38:29;21.25;;;11.90;;
19280;SDS011;9774;52.034;5.342;2022-12-13T10:41:00;20.77;;;11.45;;
19280;SDS011;9774;52.034;5.342;2022-12-13T10:43:28;20.75;;;12.43;;
19280;SDS011;9774;52.034;5.342;2022-12-13T10:45:57;18.63;;;11.38;;
19280;SDS011;9774;52.034;5.342;2022-12-13T10:48:30;19.40;;;11.20;;
19280;SDS011;9774;52.034;5.342;2022-12-13T10:51:02;17.48;;;10.63;;
19280;SDS011;9774;52.034;5.342;2022-12-13T10:53:32;23.33;;;12.95;;
19280;SDS011;9774;52.034;5.342;2022-12-13T10:56:01;17.27;;;11.32;;
19280;SDS011;9774;52.034;5.342;2022-12-13T10:58:33;17.00;;;10.35;;
19280;SDS011;9774;52.034;5.342;2022-12-13T11:01:07;18.15;;;10.93;;
19280;SDS011;9774;52.034;5.342;2022-12-13T11:03:36;21.27;;;12.93;;
19280;SDS011;9774;52.034;5.342;2022-12-13T11:06:06;20.27;;;11.30;;
19280;SDS011;9774;52.034;5.342;2022-12-13T11:08:39;19.00;;;11.52;;
19280;SDS011;9774;52.034;5.342;2022-12-13T11:11:07;20.80;;;12.13;;
19280;SDS011;9774;52.034;5.342;2022-12-13T11:13:37;21.45;;;12.40;;
19280;SDS011;9774;52.034;5.342;2022-12-13T11:16:14;20.58;;;11.73;;
19280;SDS011;9774;52.034;5.342;2022-12-13T11:18:49;18.25;;;10.93;;
19280;SDS011;9774;52.034;5.342;2022-12-13T11:21:23;19.40;;;11.63;;
19280;SDS011;9774;52.034;5.342;2022-12-13T11:23:52;19.77;;;11.80;;
19280;SDS011;9774;52.034;5.342;2022-12-13T11:26:22;18.40;;;11.30;;
19280;SDS011;9774;52.034;5.342;2022-12-13T11:31:51;17.67;;;10.27;;
19280;SDS011;9774;52.034;5.342;2022-12-13T11:34:29;18.35;;;11.20;;
19280;SDS011;9774;52.034;5.342;2022-12-13T11:37:06;22.25;;;12.13;;
19280;SDS011;9774;52.034;5.342;2022-12-13T11:39:44;19.80;;;11.35;;
19280;SDS011;9774;52.034;5.342;2022-12-13T11:42:17;18.90;;;11.68;;
19280;SDS011;9774;52.034;5.342;2022-12-13T11:44:52;20.60;;;11.48;;
19280;SDS011;9774;52.034;5.342;2022-12-13T11:47:26;20.52;;;11.20;;
19280;SDS011;9774;52.034;5.342;2022-12-13T11:50:01;20.83;;;12.00;;
19280;SDS011;9774;52.034;5.342;2022-12-13T11:52:33;16.63;;;10.68;;
19280;SDS011;9774;52.034;5.342;2022-12-13T11:55:07;18.88;;;11.48;;
19280;SDS011;9774;52.034;5.342;2022-12-13T11:57:43;18.83;;;11.38;;
19280;SDS011;9774;52.034;5.342;2022-12-13T12:00:29;21.33;;;11.73;;
19280;SDS011;9774;52.034;5.342;2022-12-13T12:03:01;21.55;;;11.70;;
19280;SDS011;9774;52.034;5.342;2022-12-13T12:05:40;21.17;;;11.00;;
19280;SDS011;9774;52.034;5.342;2022-12-13T12:08:15;19.85;;;11.02;;
19280;SDS011;9774;52.034;5.342;2022-12-13T12:10:50;17.35;;;10.35;;
19280;SDS011;9774;52.034;5.342;2022-12-13T12:13:27;18.65;;;10.77;;
19280;SDS011;9774;52.034;5.342;2022-12-13T12:16:04;20.70;;;11.60;;
19280;SDS011;9774;52.034;5.342;2022-12-13T12:18:35;19.55;;;11.30;;
19280;SDS011;9774;52.034;5.342;2022-12-13T12:21:06;18.00;;;11.13;;
19280;SDS011;9774;52.034;5.342;2022-12-13T12:23:47;18.95;;;11.02;;
19280;SDS011;9774;52.034;5.342;2022-12-13T12:26:22;16.90;;;11.00;;
19280;SDS011;9774;52.034;5.342;2022-12-13T12:29:08;20.88;;;12.70;;
19280;SDS011;9774;52.034;5.342;2022-12-13T12:31:54;17.08;;;10.93;;
19280;SDS011;9774;52.034;5.342;2022-12-13T12:34:32;19.08;;;10.68;;
19280;SDS011;9774;52.034;5.342;2022-12-13T12:37:07;19.70;;;11.15;;
19280;SDS011;9774;52.034;5.342;2022-12-13T12:39:50;20.33;;;11.13;;
19280;SDS011;9774;52.034;5.342;2022-12-13T12:42:41;20.40;;;11.38;;
19280;SDS011;9774;52.034;5.342;2022-12-13T12:45:18;18.60;;;11.38;;
19280;SDS011;9774;52.034;5.342;2022-12-13T12:48:01;18.77;;;11.25;;
19280;SDS011;9774;52.034;5.342;2022-12-13T12:50:41;18.45;;;10.82;;
19280;SDS011;9774;52.034;5.342;2022-12-13T12:53:22;21.00;;;11.30;;
19280;SDS011;9774;52.034;5.342;2022-12-13T12:56:01;19.58;;;11.18;;
19280;SDS011;9774;52.034;5.342;2022-12-13T12:58:39;17.65;;;11.00;;
19280;SDS011;9774;52.034;5.342;2022-12-13T13:01:14;20.77;;;12.05;;
19280;SDS011;9774;52.034;5.342;2022-12-13T13:03:53;16.40;;;10.48;;
19280;SDS011;9774;52.034;5.342;2022-12-13T13:06:27;16.63;;;10.63;;
19280;SDS011;9774;52.034;5.342;2022-12-13T13:08:59;17.15;;;10.38;;
19280;SDS011;9774;52.034;5.342;2022-12-13T13:11:32;16.58;;;10.05;;
19280;SDS011;9774;52.034;5.342;2022-12-13T13:14:04;17.33;;;10.65;;
19280;SDS011;9774;52.034;5.342;2022-12-13T13:16:51;17.45;;;10.85;;
19280;SDS011;9774;52.034;5.342;2022-12-13T13:22:14;14.52;;;9.05;;
19280;SDS011;9774;52.034;5.342;2022-12-13T13:25:00;17.13;;;9.30;;
19280;SDS011;9774;52.034;5.342;2022-12-13T13:27:48;17.13;;;10.07;;
19280;SDS011;9774;52.034;5.342;2022-12-13T13:30:17;15.15;;;9.32;;
19280;SDS011;9774;52.034;5.342;2022-12-13T13:32:46;19.60;;;11.18;;
19280;SDS011;9774;52.034;5.342;2022-12-13T13:47:12;17.52;;;9.88;;
19280;SDS011;9774;52.034;5.342;2022-12-13T13:49:42;19.15;;;10.88;;
19280;SDS011;9774;52.034;5.342;2022-12-13T13:52:22;19.92;;;10.75;;
19280;SDS011;9774;52.034;5.342;2022-12-13T13:58:03;19.83;;;11.35;;
19280;SDS011;9774;52.034;5.342;2022-12-13T14:01:05;14.75;;;9.82;;
19280;SDS011;9774;52.034;5.342;2022-12-13T14:19:51;15.32;;;9.35;;
19280;SDS011;9774;52.034;5.342;2022-12-13T14:22:43;19.35;;;11.10;;
19280;SDS011;9774;52.034;5.342;2022-12-13T14:25:21;17.80;;;10.77;;
19280;SDS011;9774;52.034;5.342;2022-12-13T14:28:08;18.23;;;11.15;;
19280;SDS011;9774;52.034;5.342;2022-12-13T14:30:42;18.65;;;11.35;;
19280;SDS011;9774;52.034;5.342;2022-12-13T14:33:13;18.67;;;11.30;;
19280;SDS011;9774;52.034;5.342;2022-12-13T14:35:53;16.92;;;10.35;;
19280;SDS011;9774;52.034;5.342;2022-12-13T14:38:22;18.67;;;11.00;;
19280;SDS011;9774;52.034;5.342;2022-12-13T14:40:51;19.55;;;10.88;;
19280;SDS011;9774;52.034;5.342;2022-12-13T14:43:21;17.77;;;11.40;;
19280;SDS011;9774;52.034;5.342;2022-12-13T14:45:52;20.38;;;12.02;;
19280;SDS011;9774;52.034;5.342;2022-12-13T14:48:20;19.80;;;11.70;;
19280;SDS011;9774;52.034;5.342;2022-12-13T14:50:48;19.52;;;11.40;;
19280;SDS011;9774;52.034;5.342;2022-12-13T14:53:23;21.15;;;10.95;;
19280;SDS011;9774;52.034;5.342;2022-12-13T14:56:04;18.88;;;11.43;;
19280;SDS011;9774;52.034;5.342;2022-12-13T14:58:33;19.63;;;12.48;;
19280;SDS011;9774;52.034;5.342;2022-12-13T15:01:01;20.63;;;11.27;;
19280;SDS011;9774;52.034;5.342;2022-12-13T15:03:29;20.02;;;12.95;;
19280;SDS011;9774;52.034;5.342;2022-12-13T15:05:57;16.55;;;11.38;;
19280;SDS011;9774;52.034;5.342;2022-12-13T15:08:27;18.75;;;11.73;;
19280;SDS011;9774;52.034;5.342;2022-12-13T15:10:56;17.67;;;10.88;;
19280;SDS011;9774;52.034;5.342;2022-12-13T15:13:26;21.77;;;12.40;;
19280;SDS011;9774;52.034;5.342;2022-12-13T15:15:58;19.35;;;13.23;;
19280;SDS011;9774;52.034;5.342;2022-12-13T15:18:27;19.98;;;12.32;;
19280;SDS011;9774;52.034;5.342;2022-12-13T15:20:56;18.67;;;11.88;;
19280;SDS011;9774;52.034;5.342;2022-12-13T15:23:24;20.70;;;11.77;;
19280;SDS011;9774;52.034;5.342;2022-12-13T15:25:57;19.23;;;12.15;;
19280;SDS011;9774;52.034;5.342;2022-12-13T15:28:28;17.83;;;11.65;;
19280;SDS011;9774;52.034;5.342;2022-12-13T15:30:58;16.42;;;10.70;;
19280;SDS011;9774;52.034;5.342;2022-12-13T15:33:28;18.65;;;11.77;;
19280;SDS011;9774;52.034;5.342;2022-12-13T15:36:01;19.40;;;12.10;;
19280;SDS011;9774;52.034;5.342;2022-12-13T15:38:32;33.25;;;22.00;;
19280;SDS011;9774;52.034;5.342;2022-12-13T15:41:01;27.13;;;15.93;;
19280;SDS011;9774;52.034;5.342;2022-12-13T15:43:31;25.17;;;14.68;;
19280;SDS011;9774;52.034;5.342;2022-12-13T15:46:01;23.48;;;13.18;;